Time;durP1;ratioP1;P1;durP2;ratioP2;P2;SDS_P1;SDS_P2;PMS_P1;PMS_P2;Temp;Humidity;BMP_temperature;BMP_pressure;BME280_temperature;BME280_humidity;BME280_pressure;Samples;Min_cycle;Max_cycle;Signal;HPM_P1;HPM_P2
2022/02/21 00:02:00;;;;;;;4.95;1.67;;;;;;;8.69;100.00;97479.16;5060786;28;20084;-69
2022/02/21 00:04:25;;;;;;;4.53;1.50;;;;;;;8.66;100.00;97445.16;5060526;28;20096;-69
2022/02/21 00:06:50;;;;;;;5.75;1.33;;;;;;;8.64;100.00;97458.31;5056053;28;20347;-69
2022/02/21 00:09:16;;;;;;;7.45;1.98;;;;;;;8.64;100.00;97447.00;5048257;28;20224;-69
2022/02/21 00:11:41;;;;;;;7.40;1.45;;;;;;;8.65;100.00;97433.84;5056273;28;20084;-69
2022/02/21 00:14:07;;;;;;;14.85;1.85;;;;;;;8.65;100.00;97464.44;5046330;28;20096;-69
2022/02/21 00:16:33;;;;;;;3.78;1.33;;;;;;;8.60;100.00;97440.09;5050123;28;20020;-69
2022/02/21 00:18:59;;;;;;;7.10;1.50;;;;;;;8.59;100.00;97441.88;5054909;28;20021;-69
2022/02/21 00:21:25;;;;;;;3.88;1.20;;;;;;;8.59;100.00;97439.25;5055019;28;20190;-69
2022/02/21 00:23:50;;;;;;;3.08;0.98;;;;;;;8.63;100.00;97408.53;5049540;28;20094;-69
2022/02/21 00:26:18;;;;;;;7.13;1.58;;;;;;;8.61;100.00;97416.44;5059817;28;20020;-69
2022/02/21 00:28:46;;;;;;;8.20;1.48;;;;;;;8.62;100.00;97407.69;5048650;28;20051;-69
2022/02/21 00:31:12;;;;;;;6.45;1.20;;;;;;;8.63;100.00;97409.41;5060386;28;20024;-69
2022/02/21 00:33:38;;;;;;;9.73;1.75;;;;;;;8.60;100.00;97383.28;5060531;28;20021;-69
2022/02/21 00:36:05;;;;;;;3.95;1.00;;;;;;;8.61;100.00;97395.47;5059663;28;20127;-69
2022/02/21 00:38:30;;;;;;;11.68;1.67;;;;;;;8.60;100.00;97383.28;5049777;28;20029;-69
2022/02/21 00:40:56;;;;;;;3.97;1.13;;;;;;;8.63;100.00;97393.66;5053119;28;20136;-69
2022/02/21 00:43:21;;;;;;;8.88;1.42;;;;;;;8.68;100.00;97380.41;5053818;28;20285;-69
2022/02/21 00:45:47;;;;;;;6.13;1.40;;;;;;;8.66;100.00;97393.56;5051254;28;20016;-69
2022/02/21 00:48:12;;;;;;;10.85;1.33;;;;;;;8.69;100.00;97372.50;5062312;28;20020;-69
2022/02/21 00:50:38;;;;;;;3.35;1.42;;;;;;;8.68;100.00;97356.81;5056389;28;20201;-69
2022/02/21 00:53:04;;;;;;;4.45;0.93;;;;;;;8.71;100.00;97360.19;5063677;28;20084;-69
2022/02/21 00:55:30;;;;;;;6.95;1.50;;;;;;;8.63;100.00;97343.84;5061410;28;20036;-69
2022/02/21 00:57:56;;;;;;;3.45;0.80;;;;;;;8.68;100.00;97344.53;5050018;28;20327;-69
2022/02/21 01:00:22;;;;;;;3.47;1.10;;;;;;;8.66;100.00;97356.00;5051625;28;20017;-69
2022/02/21 01:02:47;;;;;;;2.50;1.02;;;;;;;8.69;100.00;97322.66;5064271;28;20024;-69
2022/02/21 01:05:13;;;;;;;2.25;0.80;;;;;;;8.71;100.00;97312.97;5054357;28;20017;-69
2022/02/21 01:07:38;;;;;;;2.67;0.82;;;;;;;8.65;100.00;97302.69;5057363;28;20029;-69
2022/02/21 01:10:05;;;;;;;2.50;0.95;;;;;;;8.65;100.00;97307.94;5058717;28;20028;-69
2022/02/21 01:12:30;;;;;;;9.25;0.93;;;;;;;8.72;100.00;97282.34;5064338;28;20020;-69
2022/02/21 01:14:56;;;;;;;14.65;1.88;;;;;;;8.69;100.00;97283.31;5057658;28;20317;-69
2022/02/21 01:17:22;;;;;;;1.70;0.80;;;;;;;8.66;100.00;97288.66;5058656;28;20021;-69
2022/02/21 01:19:49;;;;;;;8.88;1.25;;;;;;;8.64;100.00;97295.72;5054272;28;20013;-69
2022/02/21 01:22:14;;;;;;;3.92;1.23;;;;;;;8.68;100.00;97286.84;5055654;28;20021;-69
2022/02/21 01:24:40;;;;;;;0.82;0.63;;;;;;;8.69;100.00;97270.22;5063812;28;20096;-69
2022/02/21 01:27:05;;;;;;;2.45;0.70;;;;;;;8.70;100.00;97261.44;5053701;28;20025;-69
2022/02/21 01:29:31;;;;;;;3.33;0.70;;;;;;;8.71;100.00;97233.44;5049313;28;20017;-69
2022/02/21 01:31:56;;;;;;;8.63;0.90;;;;;;;8.71;100.00;97233.44;5047030;28;20052;-69
2022/02/21 01:34:22;;;;;;;1.55;1.00;;;;;;;8.69;100.00;97246.59;5046976;28;20321;-69
2022/02/21 01:36:48;;;;;;;3.85;1.23;;;;;;;8.69;100.00;97254.47;5046912;28;20021;-69
2022/02/21 01:39:14;;;;;;;1.00;0.50;;;;;;;8.67;100.00;97222.19;5051762;28;20036;-69
2022/02/21 01:41:39;;;;;;;4.18;0.70;;;;;;;8.72;100.00;97224.66;5054927;28;20074;-69
2022/02/21 01:44:07;;;;;;;2.50;0.65;;;;;;;8.71;100.00;97241.31;5051559;28;20220;-69
2022/02/21 01:46:34;;;;;;;3.90;0.88;;;;;;;8.72;100.00;97241.25;5063403;28;20024;-69
2022/02/21 01:48:59;;;;;;;8.43;0.95;;;;;;;8.73;100.00;97221.97;5057776;28;20096;-69
2022/02/21 01:51:25;;;;;;;2.83;0.30;;;;;;;8.71;100.00;97275.41;5055447;28;20021;-69
2022/02/21 01:53:51;;;;;;;3.97;0.70;;;;;;;8.67;100.00;97383.97;5053980;28;20502;-69
2022/02/21 01:56:16;;;;;;;8.23;0.95;;;;;;;7.59;98.24;97393.25;5059729;28;20343;-69
2022/02/21 01:58:42;;;;;;;6.78;0.80;;;;;;;6.66;97.57;97421.81;5061180;28;20048;-69
2022/02/21 02:01:07;;;;;;;13.57;1.17;;;;;;;5.59;96.71;97436.28;5048879;28;20037;-69
2022/02/21 02:03:33;;;;;;;6.18;1.05;;;;;;;5.10;97.53;97427.63;5055167;28;20056;-69
2022/02/21 02:05:58;;;;;;;3.42;0.68;;;;;;;4.89;99.69;97436.66;5051956;28;20028;-69
2022/02/21 02:08:23;;;;;;;8.32;1.17;;;;;;;4.81;100.00;97414.22;5061308;28;20025;-69
2022/02/21 02:10:49;;;;;;;13.55;1.90;;;;;;;4.83;100.00;97415.03;5053576;28;20021;-69
2022/02/21 02:13:14;;;;;;;4.65;0.85;;;;;;;5.00;100.00;97423.44;5059575;28;20021;-69
2022/02/21 02:15:40;;;;;;;8.00;1.80;;;;;;;5.11;100.00;97439.75;5061945;28;20069;-69
2022/02/21 02:18:05;;;;;;;11.40;1.58;;;;;;;5.24;100.00;97438.66;5052940;28;20326;-69
2022/02/21 02:20:31;;;;;;;12.02;2.03;;;;;;;5.33;100.00;97444.59;5052574;28;20096;-69
2022/02/21 02:22:56;;;;;;;6.45;1.27;;;;;;;5.44;100.00;97449.63;5052811;28;20096;-69
2022/02/21 02:25:22;;;;;;;8.70;0.82;;;;;;;5.54;100.00;97456.38;5046915;28;20051;-69
2022/02/21 02:27:48;;;;;;;5.75;1.17;;;;;;;5.64;100.00;97460.53;5057451;28;20028;-69
2022/02/21 02:30:14;;;;;;;7.53;1.30;;;;;;;5.65;100.00;97451.81;5045943;28;20017;-69
2022/02/21 02:32:39;;;;;;;6.20;1.00;;;;;;;5.64;100.00;97413.56;5057090;28;20088;-69
2022/02/21 02:35:05;;;;;;;2.85;0.55;;;;;;;5.64;100.00;97409.22;5065863;28;20060;-69
2022/02/21 02:37:31;;;;;;;6.70;1.33;;;;;;;5.63;100.00;97417.91;5065832;28;20082;-69
2022/02/21 02:39:57;;;;;;;5.43;1.15;;;;;;;5.66;100.00;97411.78;5065820;28;20017;-69
2022/02/21 02:42:23;;;;;;;5.75;1.00;;;;;;;5.59;100.00;97410.16;5065587;28;20027;-69
2022/02/21 02:44:49;;;;;;;8.75;1.65;;;;;;;5.76;98.62;97415.94;5054520;28;20048;-69
2022/02/21 02:47:15;;;;;;;9.15;0.93;;;;;;;5.75;98.02;97422.91;5050820;28;20021;-69
2022/02/21 02:49:41;;;;;;;2.55;0.85;;;;;;;5.73;98.08;97410.78;5076797;28;20013;-69
2022/02/21 02:52:07;;;;;;;7.72;1.17;;;;;;;5.74;97.88;97425.53;5065795;28;20062;-69
2022/02/21 02:54:33;;;;;;;6.07;1.48;;;;;;;5.84;96.56;97432.34;5065753;28;20024;-69
2022/02/21 02:56:58;;;;;;;7.45;1.00;;;;;;;5.86;95.07;97420.97;5065482;28;20328;-69
2022/02/21 02:59:25;;;;;;;3.42;0.82;;;;;;;5.92;94.41;97426.06;5065289;28;20040;-69
2022/02/21 03:01:52;;;;;;;6.30;1.00;;;;;;;5.95;93.32;97425.16;5065238;28;20044;-69
2022/02/21 03:04:18;;;;;;;4.05;1.17;;;;;;;5.96;92.35;97439.94;5064799;28;20332;-69
2022/02/21 03:06:43;;;;;;;4.75;1.15;;;;;;;6.04;89.52;97443.22;5065321;28;20028;-69
2022/02/21 03:09:09;;;;;;;11.98;1.10;;;;;;;5.99;90.49;97463.38;5065229;28;20020;-69
2022/02/21 03:11:35;;;;;;;10.80;1.15;;;;;;;5.92;90.70;97441.72;5065148;28;20024;-69
2022/02/21 03:14:00;;;;;;;11.93;1.10;;;;;;;5.94;90.15;97436.47;5065106;28;20021;-69
2022/02/21 03:16:27;;;;;;;11.93;1.33;;;;;;;6.00;87.10;97465.06;5056934;28;20245;-69
2022/02/21 03:18:53;;;;;;;6.65;0.93;;;;;;;5.97;88.53;97471.22;5052390;28;20021;-69
2022/02/21 03:21:19;;;;;;;5.43;1.17;;;;;;;5.93;87.80;97463.50;5053925;28;20136;-69
2022/02/21 03:23:44;;;;;;;6.20;0.93;;;;;;;5.95;87.41;97477.38;5056184;28;20013;-69
2022/02/21 03:26:10;;;;;;;10.95;1.98;;;;;;;5.91;88.08;97462.66;5047207;28;20028;-69
2022/02/21 03:28:35;;;;;;;8.50;1.15;;;;;;;5.86;87.86;97465.34;5058811;28;20027;-69
2022/02/21 03:31:00;;;;;;;5.68;1.45;;;;;;;5.88;86.88;97473.16;5052916;28;20021;-69
2022/02/21 03:33:26;;;;;;;8.10;1.52;;;;;;;5.87;86.44;97474.03;5052848;28;20021;-69
2022/02/21 03:35:51;;;;;;;5.78;0.85;;;;;;;5.85;86.10;97488.88;5051981;28;20052;-69
2022/02/21 03:38:17;;;;;;;11.40;2.30;;;;;;;5.84;85.38;97487.16;5049792;28;20068;-69
2022/02/21 03:40:43;;;;;;;8.60;1.35;;;;;;;5.74;86.74;97493.41;5053900;28;20025;-69
2022/02/21 03:43:08;;;;;;;13.85;1.75;;;;;;;5.77;84.98;97477.69;5056811;28;20028;-69
2022/02/21 03:45:34;;;;;;;5.53;1.08;;;;;;;5.76;85.21;97470.75;5047377;28;20025;-69
2022/02/21 03:48:00;;;;;;;7.25;1.50;;;;;;;5.73;84.79;97470.81;5056709;28;20097;-69
2022/02/21 03:50:25;;;;;;;5.50;0.77;;;;;;;5.73;85.09;97486.47;5060885;28;20095;-69
2022/02/21 03:52:51;;;;;;;5.40;1.38;;;;;;;5.73;83.55;97481.25;5057345;28;20063;-69
2022/02/21 03:55:17;;;;;;;4.65;1.73;;;;;;;5.70;84.07;97494.38;5046684;28;20022;-68
2022/02/21 03:57:42;;;;;;;6.57;1.13;;;;;;;5.67;85.33;97508.31;5047524;28;20041;-68
2022/02/21 04:00:13;;;;;;;3.95;1.05;;;;;;;5.67;84.85;97512.69;5060630;28;20040;-68
2022/02/21 04:02:38;;;;;;;12.77;2.05;;;;;;;5.62;85.34;97491.91;5057721;28;20028;-68
2022/02/21 04:05:05;;;;;;;6.47;1.05;;;;;;;5.60;84.06;97505.88;5046482;28;20045;-68
2022/02/21 04:07:31;;;;;;;9.20;1.13;;;;;;;5.56;83.97;97493.72;5047876;28;20025;-68
2022/02/21 04:09:56;;;;;;;18.92;1.77;;;;;;;5.60;83.10;97500.66;5059238;28;20023;-68
2022/02/21 04:12:22;;;;;;;2.55;0.90;;;;;;;5.51;83.44;97516.47;5052536;28;20074;-68
2022/02/21 04:14:47;;;;;;;12.68;1.55;;;;;;;5.51;83.81;97506.03;5046366;28;20021;-68
2022/02/21 04:17:13;;;;;;;9.85;1.58;;;;;;;5.43;84.65;97513.09;5052876;28;20033;-68
2022/02/21 04:19:39;;;;;;;4.10;1.30;;;;;;;5.38;84.37;97494.91;5056792;28;20025;-68
2022/02/21 04:22:09;;;;;;;7.38;1.55;;;;;;;5.34;84.39;97518.47;5046181;28;20067;-68
2022/02/21 04:24:35;;;;;;;13.35;1.80;;;;;;;5.43;82.82;97507.88;5056478;28;20084;-68
2022/02/21 04:27:01;;;;;;;19.42;2.63;;;;;;;5.36;83.85;97528.03;5052804;28;20021;-68
2022/02/21 04:29:26;;;;;;;7.55;1.42;;;;;;;5.31;84.23;97535.03;5051348;28;20082;-68
2022/02/21 04:31:52;;;;;;;10.98;1.55;;;;;;;5.29;84.42;97547.28;5053124;28;20017;-68
2022/02/21 04:34:17;;;;;;;7.05;0.85;;;;;;;5.36;83.57;97559.31;5054811;28;20048;-68
2022/02/21 04:36:42;;;;;;;14.23;1.30;;;;;;;5.35;84.54;97561.97;5058581;28;20044;-68
2022/02/21 04:39:08;;;;;;;7.82;1.88;;;;;;;5.29;85.14;97573.34;5045470;28;20036;-68
2022/02/21 04:41:33;;;;;;;14.30;1.88;;;;;;;5.24;85.60;97574.28;5045087;28;20024;-68
2022/02/21 04:43:59;;;;;;;9.57;1.17;;;;;;;5.25;85.15;97573.44;5045125;28;20029;-68
2022/02/21 04:46:25;;;;;;;10.05;2.08;;;;;;;5.23;84.64;97577.78;5046761;28;20087;-68
2022/02/21 04:48:50;;;;;;;16.27;1.90;;;;;;;5.22;84.41;97565.66;5057536;28;20321;-68
2022/02/21 04:51:15;;;;;;;11.43;1.13;;;;;;;5.20;84.06;97572.63;5050914;28;20025;-68
2022/02/21 04:53:41;;;;;;;8.25;1.52;;;;;;;5.12;84.51;97587.53;5047415;28;20204;-68
2022/02/21 04:56:06;;;;;;;11.60;1.40;;;;;;;5.07;83.62;97576.31;5043888;28;20025;-69
2022/02/21 04:58:32;;;;;;;15.93;1.60;;;;;;;5.01;84.57;97597.25;5044797;28;20041;-69
2022/02/21 05:00:57;;;;;;;18.95;2.20;;;;;;;4.90;85.13;97588.72;5046795;28;20033;-69
2022/02/21 05:03:23;;;;;;;26.02;2.58;;;;;;;4.87;85.49;97591.38;5058942;28;20195;-69
2022/02/21 05:05:48;;;;;;;7.45;1.60;;;;;;;4.92;84.98;97586.94;5049614;28;20040;-68
2022/02/21 05:08:14;;;;;;;16.48;1.95;;;;;;;4.87;85.22;97578.34;5050595;28;20032;-68
2022/02/21 05:10:39;;;;;;;33.33;2.33;;;;;;;4.77;85.62;97577.59;5061816;28;20336;-68
2022/02/21 05:13:05;;;;;;;18.02;1.63;;;;;;;4.72;85.77;97584.63;5063442;28;20092;-68
2022/02/21 05:15:30;;;;;;;14.98;2.15;;;;;;;4.65;85.58;97587.31;5063470;28;20309;-68
2022/02/21 05:17:55;;;;;;;14.55;1.48;;;;;;;4.60;85.93;97589.09;5063459;28;20344;-68
2022/02/21 05:20:21;;;;;;;19.10;2.15;;;;;;;4.57;85.47;97578.72;5063628;28;20063;-68
2022/02/21 05:22:47;;;;;;;10.88;1.33;;;;;;;4.55;85.72;97602.19;5063282;28;20021;-68
2022/02/21 05:25:13;;;;;;;7.43;1.25;;;;;;;4.56;84.30;97598.72;5063531;28;20217;-68
2022/02/21 05:27:40;;;;;;;9.75;2.33;;;;;;;4.52;83.77;97597.00;5064999;28;20017;-68
2022/02/21 05:30:07;;;;;;;11.25;1.73;;;;;;;4.53;82.69;97600.50;5067089;28;20084;-68
2022/02/21 05:32:33;;;;;;;17.85;2.53;;;;;;;4.45;82.84;97611.88;5066997;28;20316;-68
2022/02/21 05:34:59;;;;;;;17.92;2.50;;;;;;;4.39;82.64;97622.38;5066997;28;20017;-68
2022/02/21 05:37:25;;;;;;;16.35;2.15;;;;;;;4.33;82.49;97626.75;5066971;28;20025;-68
2022/02/21 05:39:50;;;;;;;19.55;2.28;;;;;;;4.35;82.03;97636.31;5066940;28;20276;-68
2022/02/21 05:42:16;;;;;;;22.00;2.42;;;;;;;4.24;83.29;97642.50;5066809;28;20340;-68
2022/02/21 05:44:41;;;;;;;7.18;1.52;;;;;;;4.27;82.08;97645.94;5066971;28;20078;-68
2022/02/21 05:47:07;;;;;;;7.32;1.70;;;;;;;4.23;82.04;97652.06;5066781;28;20082;-68
2022/02/21 05:49:33;;;;;;;11.52;1.45;;;;;;;4.17;82.53;97652.13;5066763;28;20031;-68
2022/02/21 05:51:59;;;;;;;15.05;2.05;;;;;;;4.18;82.21;97642.56;5066954;28;20347;-68
2022/02/21 05:54:24;;;;;;;8.30;1.73;;;;;;;4.22;81.47;97649.47;5066648;28;20025;-68
2022/02/21 05:56:50;;;;;;;17.85;1.90;;;;;;;4.18;82.96;97647.78;5066694;28;20337;-68
2022/02/21 05:59:16;;;;;;;22.60;2.15;;;;;;;4.13;82.28;97640.00;5066491;28;20052;-68
2022/02/21 06:01:41;;;;;;;13.63;3.10;;;;;;;4.20;82.36;97652.09;5066476;28;20021;-68
2022/02/21 06:04:08;;;;;;;16.60;1.58;;;;;;;4.16;82.66;97647.78;5066493;28;20097;-68
2022/02/21 06:06:34;;;;;;;10.45;1.70;;;;;;;4.15;82.83;97653.84;5066439;28;20028;-68
2022/02/21 06:09:01;;;;;;;15.63;2.20;;;;;;;4.14;82.76;97661.69;5066404;28;20194;-68
2022/02/21 06:11:27;;;;;;;12.15;1.63;;;;;;;4.06;83.90;97664.38;5066592;28;20024;-68
2022/02/21 06:13:52;;;;;;;13.73;2.53;;;;;;;4.09;83.58;97663.50;5066260;28;20083;-68
2022/02/21 06:16:17;;;;;;;18.50;1.50;;;;;;;4.05;83.48;97664.41;5066265;28;20028;-68
2022/02/21 06:18:43;;;;;;;10.05;1.73;;;;;;;4.12;83.61;97666.06;5066211;28;20080;-68
2022/02/21 06:21:08;;;;;;;6.70;1.38;;;;;;;4.04;84.12;97665.25;5066060;28;20017;-69
2022/02/21 06:23:33;;;;;;;12.25;1.67;;;;;;;4.03;84.09;97669.63;5066101;28;20052;-69
2022/02/21 06:25:59;;;;;;;18.05;2.00;;;;;;;3.96;84.51;97678.34;5065990;28;20100;-69
2022/02/21 06:28:24;;;;;;;17.63;2.08;;;;;;;4.06;84.91;97680.00;5066265;28;20031;-69
2022/02/21 06:30:51;;;;;;;22.23;2.33;;;;;;;4.05;84.23;97662.63;5066020;28;20043;-69
2022/02/21 06:33:17;;;;;;;17.25;1.90;;;;;;;4.06;84.49;97669.59;5066180;28;20340;-69
2022/02/21 06:35:43;;;;;;;10.43;1.48;;;;;;;4.15;83.69;97685.09;5065886;28;20025;-69
2022/02/21 06:38:09;;;;;;;13.93;2.17;;;;;;;4.20;84.26;97678.13;5065703;28;20051;-69
2022/02/21 06:40:34;;;;;;;16.63;2.22;;;;;;;4.19;84.12;97691.16;5065005;28;20025;-69
2022/02/21 06:43:01;;;;;;;36.05;3.97;;;;;;;4.21;85.04;97685.06;5065740;28;20056;-69
2022/02/21 06:45:27;;;;;;;11.75;2.03;;;;;;;4.22;84.34;97697.22;5065951;28;20052;-69
2022/02/21 06:47:54;;;;;;;22.33;2.72;;;;;;;4.17;84.35;97703.31;5065654;28;20028;-69
2022/02/21 06:50:19;;;;;;;31.40;2.78;;;;;;;4.20;85.02;97698.09;5065615;28;20029;-69
2022/02/21 06:52:45;;;;;;;11.90;1.65;;;;;;;4.21;84.35;97705.88;5065509;28;20028;-69
2022/02/21 06:55:14;;;;;;;16.02;3.03;;;;;;;4.30;84.32;97704.94;5065591;28;20074;-69
2022/02/21 06:57:41;;;;;;;13.25;2.90;;;;;;;4.36;85.40;97718.78;5065534;28;20079;-69
2022/02/21 07:00:07;;;;;;;4.80;1.20;;;;;;;4.40;84.79;97723.06;5065281;28;20049;-69
2022/02/21 07:02:32;;;;;;;17.70;2.05;;;;;;;4.43;85.60;97722.16;5065530;28;20313;-69
2022/02/21 07:04:59;;;;;;;26.63;2.55;;;;;;;4.48;85.46;97725.59;5065297;28;20047;-69
2022/02/21 07:07:25;;;;;;;19.20;1.50;;;;;;;4.53;85.84;97726.44;5065279;28;20050;-69
2022/02/21 07:09:50;;;;;;;12.35;1.27;;;;;;;4.59;85.10;97739.41;5065199;28;20035;-69
2022/02/21 07:12:17;;;;;;;26.55;2.35;;;;;;;4.68;85.36;97739.28;5065222;28;20021;-69
2022/02/21 07:14:43;;;;;;;6.40;1.50;;;;;;;4.75;85.42;97750.50;5065149;28;20202;-69
2022/02/21 07:17:08;;;;;;;13.52;1.90;;;;;;;4.71;86.22;97754.03;5065079;28;20028;-69
2022/02/21 07:19:33;;;;;;;4.82;1.30;;;;;;;4.80;85.58;97751.31;5065045;28;20032;-69
2022/02/21 07:21:59;;;;;;;34.63;2.97;;;;;;;4.74;85.88;97748.81;5064945;28;20317;-69
2022/02/21 07:24:24;;;;;;;13.38;1.13;;;;;;;4.77;86.55;97748.78;5065126;28;20024;-69
2022/02/21 07:26:50;;;;;;;10.27;2.17;;;;;;;4.87;86.55;97745.19;5064878;28;20024;-69
2022/02/21 07:29:16;;;;;;;15.32;2.00;;;;;;;4.91;86.02;97760.78;5064864;28;20298;-69
2022/02/21 07:31:41;;;;;;;6.80;1.30;;;;;;;4.91;86.79;97742.53;5064959;28;20025;-69
2022/02/21 07:34:07;;;;;;;23.75;2.85;;;;;;;4.81;87.22;97751.28;5064783;28;20067;-69
2022/02/21 07:36:34;;;;;;;17.42;3.00;;;;;;;4.84;87.37;97751.25;5064724;28;20029;-69
2022/02/21 07:39:01;;;;;;;13.07;1.75;;;;;;;4.98;86.87;97738.09;5064642;28;20040;-69
2022/02/21 07:41:27;;;;;;;14.40;1.45;;;;;;;5.02;86.94;97743.25;5064524;28;20036;-69
2022/02/21 07:43:52;;;;;;;8.90;2.03;;;;;;;5.06;86.60;97765.78;5064603;28;20024;-69
2022/02/21 07:46:18;;;;;;;12.23;2.13;;;;;;;5.05;87.07;97763.19;5064592;28;20339;-69
2022/02/21 07:48:43;;;;;;;17.60;1.80;;;;;;;5.07;86.66;97769.28;5064546;28;20031;-69
2022/02/21 07:51:09;;;;;;;24.13;2.90;;;;;;;5.10;86.68;97761.41;5064316;28;20017;-69
2022/02/21 07:53:34;;;;;;;10.38;1.80;;;;;;;5.16;86.58;97769.16;5064523;28;20025;-69
2022/02/21 07:56:00;;;;;;;9.48;1.05;;;;;;;5.21;85.78;97783.00;5064385;28;20051;-69
2022/02/21 07:58:25;;;;;;;14.63;1.42;;;;;;;5.15;85.82;97783.06;5064177;28;20044;-69
2022/02/21 08:00:51;;;;;;;9.25;1.80;;;;;;;5.10;85.09;97777.94;5064254;28;20025;-69
2022/02/21 08:03:16;;;;;;;9.65;1.30;;;;;;;5.16;84.98;97774.38;5064234;28;20043;-69
2022/02/21 08:05:42;;;;;;;11.00;2.00;;;;;;;5.14;85.33;97784.84;5064262;28;20027;-69
2022/02/21 08:08:08;;;;;;;15.73;1.60;;;;;;;5.13;83.16;97790.94;5064185;28;20020;-69
2022/02/21 08:10:35;;;;;;;9.43;1.00;;;;;;;5.06;83.31;97783.19;5064131;28;20020;-69
2022/02/21 08:13:02;;;;;;;8.23;0.90;;;;;;;5.00;84.19;97798.91;5064108;28;20031;-69
2022/02/21 08:15:28;;;;;;;3.90;0.60;;;;;;;4.83;86.03;97821.66;5064071;28;20028;-69
2022/02/21 08:17:54;;;;;;;5.53;0.38;;;;;;;4.64;87.48;97814.91;5064052;28;20029;-69
2022/02/21 08:20:22;;;;;;;2.38;0.40;;;;;;;4.44;90.64;97810.72;5064004;28;20025;-69
2022/02/21 08:22:48;;;;;;;5.70;0.88;;;;;;;4.34;91.97;97811.69;5063887;28;20027;-69
2022/02/21 08:25:14;;;;;;;4.60;0.90;;;;;;;4.13;93.56;97798.84;5063851;28;20028;-69
2022/02/21 08:27:41;;;;;;;5.40;0.47;;;;;;;4.07;94.23;97806.69;5063935;28;20024;-69
2022/02/21 08:30:10;;;;;;;6.07;0.40;;;;;;;4.02;95.26;97805.84;5064131;28;20239;-69
2022/02/21 08:32:36;;;;;;;1.35;0.57;;;;;;;4.02;96.15;97833.66;5063833;28;20321;-69
2022/02/21 08:35:02;;;;;;;2.95;0.68;;;;;;;3.89;96.04;97832.84;5063826;28;20062;-69
2022/02/21 08:37:28;;;;;;;1.08;0.47;;;;;;;3.81;97.28;97859.78;5063812;28;20253;-69
2022/02/21 08:39:53;;;;;;;3.05;0.32;;;;;;;3.65;97.39;97839.94;5063820;28;20028;-69
2022/02/21 08:42:19;;;;;;;2.15;0.60;;;;;;;3.67;98.00;97852.03;5063757;28;20021;-69
2022/02/21 08:44:44;;;;;;;4.53;0.88;;;;;;;3.65;97.85;97848.59;5063798;28;20084;-69
2022/02/21 08:47:09;;;;;;;11.27;0.70;;;;;;;3.75;97.08;97839.88;5063706;28;20059;-69
2022/02/21 08:49:35;;;;;;;1.23;0.57;;;;;;;4.80;96.73;97842.53;5063690;28;20032;-69
2022/02/21 08:52:00;;;;;;;2.33;0.68;;;;;;;4.57;94.23;97847.09;5063724;28;20213;-69
2022/02/21 08:54:26;;;;;;;1.33;0.57;;;;;;;4.39;94.96;97855.94;5063925;28;20025;-69
2022/02/21 08:56:51;;;;;;;2.38;1.15;;;;;;;4.56;94.51;97858.41;5063653;28;20027;-69
2022/02/21 08:59:18;;;;;;;5.13;0.68;;;;;;;5.03;93.13;97872.75;5063497;28;20108;-69
2022/02/21 09:01:47;;;;;;;1.73;0.60;;;;;;;4.79;93.74;97861.69;5063545;28;20021;-69
2022/02/21 09:04:13;;;;;;;11.38;1.30;;;;;;;6.44;89.39;97870.13;5067860;28;20249;-69
2022/02/21 09:06:39;;;;;;;1.63;1.13;;;;;;;7.52;86.13;97862.97;5067542;28;20025;-69
2022/02/21 09:09:04;;;;;;;11.35;1.02;;;;;;;8.30;82.48;97850.84;5067485;28;20177;-69
2022/02/21 09:11:30;;;;;;;2.00;0.90;;;;;;;8.62;80.25;97852.69;5067470;28;20066;-69
2022/02/21 09:13:55;;;;;;;10.95;0.80;;;;;;;9.30;77.95;97851.81;5067447;28;20017;-69
2022/02/21 09:16:21;;;;;;;8.05;1.05;;;;;;;9.52;76.69;97857.34;5067415;28;20343;-69
2022/02/21 09:18:47;;;;;;;4.65;1.13;;;;;;;9.15;76.01;97859.22;5067319;28;20082;-69
2022/02/21 09:21:12;;;;;;;7.90;0.77;;;;;;;10.01;73.99;97860.31;5067283;28;20259;-69
2022/02/21 09:23:37;;;;;;;3.90;0.90;;;;;;;10.08;74.53;97867.13;5067272;28;20021;-69
2022/02/21 09:26:03;;;;;;;7.75;1.13;;;;;;;9.48;75.30;97863.56;5067261;28;20216;-69
2022/02/21 09:28:29;;;;;;;6.82;1.25;;;;;;;8.90;78.08;97847.63;5067221;28;20047;-69
2022/02/21 09:30:55;;;;;;;4.47;1.02;;;;;;;8.29;80.42;97848.25;5067094;28;20071;-69
2022/02/21 09:33:24;;;;;;;5.38;1.00;;;;;;;7.74;80.96;97838.06;5067310;28;20088;-69
2022/02/21 09:35:51;;;;;;;4.95;1.15;;;;;;;7.74;82.07;97848.53;5067055;28;20028;-69
2022/02/21 09:38:16;;;;;;;7.78;1.40;;;;;;;8.02;81.60;97841.84;5066981;28;20025;-69
2022/02/21 09:40:44;;;;;;;10.32;1.58;;;;;;;7.72;81.67;97839.84;5066916;28;20025;-69
2022/02/21 09:43:13;;;;;;;9.98;1.35;;;;;;;7.69;83.03;97832.06;5067165;28;20104;-69
2022/02/21 09:45:42;;;;;;;7.32;1.52;;;;;;;7.54;83.83;97824.53;5066820;28;20021;-69
2022/02/21 09:48:08;;;;;;;10.55;1.45;;;;;;;8.01;83.40;97816.50;5066787;28;20063;-69
2022/02/21 09:50:33;;;;;;;15.50;1.80;;;;;;;8.15;79.77;97824.94;5066986;28;20016;-69
2022/02/21 09:53:04;;;;;;;7.45;1.60;;;;;;;7.83;79.54;97819.53;5066687;28;20024;-69
2022/02/21 09:55:31;;;;;;;5.78;1.27;;;;;;;8.50;79.58;97816.28;5066728;28;20374;-69
2022/02/21 09:57:57;;;;;;;7.63;1.52;;;;;;;8.76;78.15;97813.84;5066467;28;20025;-69
2022/02/21 10:00:23;;;;;;;7.78;1.92;;;;;;;8.02;79.69;97813.00;5066556;28;20266;-69
2022/02/21 10:02:50;;;;;;;4.53;1.25;;;;;;;7.95;79.32;97810.56;5066474;28;20032;-69
2022/02/21 10:05:28;;;;;;;8.07;0.70;;;;;;;8.05;78.65;97818.19;5066451;28;20070;-69
2022/02/21 10:07:55;;;;;;;13.98;1.42;;;;;;;7.69;77.51;97813.72;5066469;28;20021;-69
2022/02/21 10:10:22;;;;;;;10.02;1.58;;;;;;;7.67;79.02;97810.28;5066400;28;20029;-69
2022/02/21 10:12:52;;;;;;;15.57;1.77;;;;;;;8.04;77.93;97799.88;5066334;28;20039;-69
2022/02/21 10:15:19;;;;;;;5.13;1.27;;;;;;;8.09;77.76;97811.97;5065391;28;20029;-69
2022/02/21 10:17:46;;;;;;;10.95;1.52;;;;;;;7.84;77.07;97802.91;5066279;28;20092;-69
2022/02/21 10:20:12;;;;;;;8.30;0.90;;;;;;;7.73;78.77;97804.06;5066191;28;20028;-69
2022/02/21 10:22:38;;;;;;;5.93;0.98;;;;;;;7.65;78.16;97806.81;5066067;28;20025;-69
2022/02/21 10:25:19;;;;;;;13.65;1.20;;;;;;;7.61;78.47;97794.69;5066054;28;20025;-69
2022/02/21 10:27:45;;;;;;;7.35;1.30;;;;;;;7.17;78.20;97792.13;5066092;28;20131;-69
2022/02/21 10:30:16;;;;;;;8.07;2.08;;;;;;;7.19;78.88;97821.75;5066021;28;20220;-69
2022/02/21 10:32:43;;;;;;;5.47;1.23;;;;;;;7.14;79.23;97814.84;5066264;28;20244;-68
2022/02/21 10:35:17;;;;;;;12.18;1.65;;;;;;;7.10;80.18;97827.16;5065889;28;20044;-68
2022/02/21 10:38:04;;;;;;;7.45;1.52;;;;;;;7.12;80.63;97820.09;5065894;28;20321;-69
2022/02/21 10:40:35;;;;;;;13.63;1.38;;;;;;;7.04;79.79;97816.78;5065589;28;20037;-69
2022/02/21 10:43:05;;;;;;;3.25;1.23;;;;;;;7.31;80.31;97816.25;5065730;28;20198;-69
2022/02/21 10:45:32;;;;;;;13.88;1.63;;;;;;;7.43;80.00;97809.94;5066010;28;20016;-69
2022/02/21 10:48:20;;;;;;;12.90;1.35;;;;;;;7.30;79.04;97808.44;5065671;28;20190;-69
2022/02/21 10:51:00;;;;;;;11.50;1.08;;;;;;;7.18;79.29;97809.53;5065669;28;20031;-69
2022/02/21 10:53:41;;;;;;;10.20;1.50;;;;;;;7.07;78.52;97805.41;5065588;28;20029;-69
2022/02/21 10:56:08;;;;;;;7.43;0.95;;;;;;;6.97;78.98;97789.03;5065553;28;20251;-69
2022/02/21 10:58:34;;;;;;;8.95;1.83;;;;;;;7.08;80.39;97787.06;5065298;28;20036;-69
2022/02/21 11:01:01;;;;;;;10.32;2.33;;;;;;;7.09;78.88;97799.22;5065613;28;20036;-69
2022/02/21 11:03:28;;;;;;;4.38;1.00;;;;;;;7.16;78.90;97795.63;5065395;28;20088;-69
2022/02/21 11:05:56;;;;;;;8.73;0.85;;;;;;;7.11;78.89;97786.13;5065330;28;20021;-69
2022/02/21 11:08:22;;;;;;;12.63;1.80;;;;;;;7.08;78.72;97781.81;5065264;28;20328;-69
2022/02/21 11:11:06;;;;;;;14.00;1.67;;;;;;;6.92;79.39;97780.38;5065274;28;20017;-69
2022/02/21 11:13:36;;;;;;;10.85;1.48;;;;;;;6.89;79.17;97785.66;5065285;28;20084;-69
2022/02/21 11:16:02;;;;;;;7.97;2.00;;;;;;;6.80;80.92;97780.59;5065174;28;20036;-69
2022/02/21 11:18:28;;;;;;;6.93;1.58;;;;;;;6.63;81.65;97777.44;5065109;28;20202;-69
2022/02/21 11:20:54;;;;;;;12.43;1.60;;;;;;;6.68;82.36;97787.81;5064991;28;20070;-69
2022/02/21 11:23:19;;;;;;;23.55;2.05;;;;;;;6.65;82.59;97788.75;5065012;28;20033;-69
2022/02/21 11:25:51;;;;;;;7.03;1.35;;;;;;;6.59;82.60;97791.47;5064488;28;20198;-69
2022/02/21 11:28:22;;;;;;;15.03;1.10;;;;;;;6.50;85.02;97781.16;5064987;28;20044;-69
2022/02/21 11:30:49;;;;;;;17.60;1.70;;;;;;;6.65;84.84;97796.59;5064992;28;20020;-69
2022/02/21 11:33:15;;;;;;;11.88;1.95;;;;;;;6.63;84.21;97793.13;5064825;28;20024;-69